createdAt,value
2023-03-11T00:01:14.029Z,11.30
2023-03-11T00:03:42.844Z,11.30
2023-03-11T00:06:11.602Z,11.30
2023-03-11T00:08:41.345Z,11.30
2023-03-11T00:11:10.309Z,11.30
2023-03-11T00:13:41.035Z,11.30
2023-03-11T00:16:09.869Z,11.20
2023-03-11T00:18:40.157Z,11.20
2023-03-11T00:21:17.472Z,11.30
2023-03-11T00:23:47.064Z,11.20
2023-03-11T00:26:15.890Z,11.20
2023-03-11T00:28:44.694Z,11.20
2023-03-11T00:31:14.911Z,11.20
2023-03-11T00:33:45.234Z,11.10
2023-03-11T00:36:24.194Z,11.10
2023-03-11T00:38:53.350Z,11.10
2023-03-11T00:41:22.422Z,11.10
2023-03-11T00:43:51.546Z,11.00
2023-03-11T00:46:20.486Z,11.10
2023-03-11T00:48:52.245Z,11.10
2023-03-11T00:51:21.367Z,11.10
2023-03-11T00:53:50.362Z,11.10
2023-03-11T00:56:19.205Z,11.10
2023-03-11T00:58:48.139Z,11.10
2023-03-11T01:01:20.772Z,11.00
2023-03-11T01:03:51.185Z,11.00
2023-03-11T01:06:19.924Z,11.10
2023-03-11T01:08:48.808Z,11.00
2023-03-11T01:11:17.734Z,10.90
2023-03-11T01:13:46.674Z,10.80
2023-03-11T01:16:15.816Z,10.80
2023-03-11T01:18:44.910Z,10.70
2023-03-11T01:21:15.256Z,10.70
2023-03-11T01:23:44.597Z,10.80
2023-03-11T01:26:14.984Z,10.70
2023-03-11T01:28:43.967Z,10.70
2023-03-11T01:31:13.022Z,10.70
2023-03-11T01:33:42.139Z,10.60
2023-03-11T01:36:11.170Z,10.60
2023-03-11T01:38:41.463Z,10.40
2023-03-11T01:41:11.400Z,10.30
2023-03-11T01:43:52.365Z,10.30
2023-03-11T01:46:25.420Z,10.10
2023-03-11T01:48:56.567Z,10.00
2023-03-11T01:51:31.019Z,10.00
2023-03-11T01:54:05.770Z,10.00
2023-03-11T01:56:35.896Z,10.00
2023-03-11T01:59:05.168Z,9.90
2023-03-11T02:01:35.964Z,9.80
2023-03-11T02:04:06.469Z,9.80
2023-03-11T02:06:35.797Z,9.80
2023-03-11T02:09:06.005Z,9.70
2023-03-11T02:11:35.347Z,9.60
2023-03-11T02:14:09.694Z,9.60
2023-03-11T02:16:39.694Z,9.50
2023-03-11T02:19:18.685Z,9.50
2023-03-11T02:21:47.931Z,9.50
2023-03-11T02:24:27.348Z,9.50
2023-03-11T02:26:59.756Z,9.40
2023-03-11T02:29:30.839Z,9.40
2023-03-11T02:32:02.852Z,9.40
2023-03-11T02:34:34.520Z,9.30
2023-03-11T02:37:07.679Z,9.30
2023-03-11T02:39:39.851Z,9.20
2023-03-11T02:42:19.001Z,9.20
2023-03-11T02:44:55.520Z,9.20
2023-03-11T02:47:24.834Z,9.10
2023-03-11T02:49:55.510Z,9.00
2023-03-11T02:52:24.577Z,8.90
2023-03-11T02:54:53.280Z,8.80
2023-03-11T02:57:23.437Z,8.80
2023-03-11T02:59:52.204Z,8.70
2023-03-11T03:02:21.232Z,8.60
2023-03-11T03:04:50.005Z,8.50
2023-03-11T03:07:18.774Z,8.40
2023-03-11T03:09:47.677Z,8.50
2023-03-11T03:12:16.530Z,8.40
2023-03-11T03:14:46.890Z,8.40
2023-03-11T03:17:15.734Z,8.30
2023-03-11T03:19:44.682Z,8.30
2023-03-11T03:22:13.504Z,8.30
2023-03-11T03:24:42.420Z,8.30
2023-03-11T03:27:11.924Z,8.30
2023-03-11T03:29:40.712Z,8.10
2023-03-11T03:32:11.197Z,8.10
2023-03-11T03:34:40.084Z,8.00
2023-03-11T03:37:09.130Z,8.00
2023-03-11T03:39:38.314Z,8.00
2023-03-11T03:42:08.053Z,8.10
2023-03-11T03:44:36.972Z,8.00
2023-03-11T03:47:06.232Z,8.00
2023-03-11T03:49:36.519Z,8.00
2023-03-11T03:52:07.256Z,7.80
2023-03-11T03:54:36.261Z,7.70
2023-03-11T03:57:05.901Z,7.70
2023-03-11T03:59:34.759Z,7.70
2023-03-11T04:02:03.800Z,7.70
2023-03-11T04:04:33.223Z,7.60
2023-03-11T04:07:05.869Z,7.60
2023-03-11T04:09:35.651Z,7.60
2023-03-11T04:12:04.610Z,7.50
2023-03-11T04:14:33.464Z,7.40
2023-03-11T04:17:02.253Z,7.40
2023-03-11T04:19:31.042Z,7.30
2023-03-11T04:21:59.850Z,7.30
2023-03-11T04:24:30.268Z,7.30
2023-03-11T04:26:59.287Z,7.20
2023-03-11T04:29:28.116Z,7.10
2023-03-11T04:31:57.068Z,7.10
2023-03-11T04:34:26.242Z,7.10
2023-03-11T04:36:55.243Z,7.00
2023-03-11T04:39:24.248Z,7.00
2023-03-11T04:41:54.399Z,7.00
2023-03-11T04:44:23.219Z,6.90
2023-03-11T04:46:52.239Z,6.80
2023-03-11T04:49:21.072Z,6.80
2023-03-11T04:51:50.056Z,6.80
2023-03-11T04:54:18.980Z,6.80
2023-03-11T04:57:01.759Z,6.90
2023-03-11T04:59:30.590Z,6.80
2023-03-11T05:01:59.613Z,6.70
2023-03-11T05:04:28.519Z,6.70
2023-03-11T05:06:57.390Z,6.80
2023-03-11T05:09:26.545Z,6.70
2023-03-11T05:11:55.468Z,6.70
2023-03-11T05:14:25.788Z,6.80
2023-03-11T05:16:54.921Z,6.80
2023-03-11T05:19:35.212Z,6.80
2023-03-11T05:22:06.318Z,6.70
2023-03-11T05:24:35.738Z,6.70
2023-03-11T05:27:05.140Z,6.60
2023-03-11T05:29:35.536Z,6.70
2023-03-11T05:32:04.674Z,6.70
2023-03-11T05:34:33.547Z,6.90
2023-03-11T05:37:03.370Z,7.00
2023-03-11T05:39:32.332Z,7.20
2023-03-11T05:42:01.247Z,7.20
2023-03-11T05:44:30.214Z,7.20
2023-03-11T05:47:00.704Z,7.30
2023-03-11T05:49:29.809Z,7.70
2023-03-11T05:51:59.057Z,8.10
2023-03-11T05:54:28.112Z,8.10
2023-03-11T05:56:57.039Z,8.20
2023-03-11T05:59:25.774Z,8.10
2023-03-11T06:01:54.764Z,7.90
2023-03-11T06:04:25.160Z,7.70
2023-03-11T06:06:54.200Z,7.50
2023-03-11T06:09:23.075Z,7.40
2023-03-11T06:11:51.966Z,7.50
2023-03-11T06:14:21.212Z,7.40
2023-03-11T06:16:50.072Z,7.40
2023-03-11T06:19:18.890Z,7.20
2023-03-11T06:21:49.177Z,7.10
2023-03-11T06:24:18.119Z,7.10
2023-03-11T06:26:47.103Z,7.10
2023-03-11T06:29:16.729Z,7.10
2023-03-11T06:31:45.865Z,7.20
2023-03-11T06:34:14.819Z,7.20
2023-03-11T06:36:44.147Z,7.20
2023-03-11T06:39:16.499Z,7.40
2023-03-11T06:41:45.369Z,7.70
2023-03-11T06:44:14.385Z,7.60
2023-03-11T06:46:43.306Z,7.50
2023-03-11T06:49:12.128Z,7.70
2023-03-11T06:51:41.526Z,7.90
2023-03-11T06:54:12.559Z,8.10
2023-03-11T06:56:42.841Z,8.30
2023-03-11T06:59:11.759Z,8.40
2023-03-11T07:01:40.557Z,8.40
2023-03-11T07:04:10.879Z,8.40
2023-03-11T07:06:39.650Z,8.30
2023-03-11T07:09:09.021Z,8.50
2023-03-11T07:11:38.027Z,8.70
2023-03-11T07:14:08.349Z,8.70
2023-03-11T07:16:39.906Z,9.00
2023-03-11T07:19:08.876Z,8.90
2023-03-11T07:21:37.749Z,8.80
2023-03-11T07:24:09.966Z,8.80
2023-03-11T07:26:42.650Z,8.90
2023-03-11T07:29:15.080Z,8.90
2023-03-11T07:31:44.171Z,9.00
2023-03-11T07:34:14.290Z,8.80
2023-03-11T07:36:46.309Z,8.70
2023-03-11T07:39:17.959Z,8.70
2023-03-11T07:41:47.632Z,8.60
2023-03-11T07:44:19.674Z,8.60
2023-03-11T07:46:48.546Z,8.30
2023-03-11T07:49:17.471Z,8.30
2023-03-11T07:51:46.308Z,8.60
2023-03-11T07:54:15.465Z,8.90
2023-03-11T07:56:44.405Z,9.30
2023-03-11T07:59:13.380Z,9.70
2023-03-11T08:01:47.404Z,10.20
2023-03-11T08:04:18.038Z,10.20
2023-03-11T08:06:49.217Z,10.60
2023-03-11T08:09:18.665Z,11.00
2023-03-11T08:11:49.592Z,11.20
2023-03-11T08:14:18.805Z,11.30
2023-03-11T08:16:49.132Z,11.20
2023-03-11T08:19:17.943Z,11.10
2023-03-11T08:21:46.850Z,11.30
2023-03-11T08:24:16.589Z,11.50
2023-03-11T08:26:45.636Z,11.80
2023-03-11T08:29:14.461Z,12.20
2023-03-11T08:31:43.441Z,12.20
2023-03-11T08:34:17.886Z,12.30
2023-03-11T08:36:46.847Z,12.80
2023-03-11T08:39:15.684Z,13.10
2023-03-11T08:41:44.541Z,13.20
2023-03-11T08:44:13.337Z,12.60
2023-03-11T08:46:42.448Z,12.60
2023-03-11T08:49:12.673Z,12.90
2023-03-11T08:51:42.704Z,13.20
2023-03-11T08:54:11.643Z,13.10
2023-03-11T08:56:40.455Z,13.00
2023-03-11T08:59:09.414Z,13.00
2023-03-11T09:01:38.428Z,13.00
2023-03-11T09:04:07.430Z,13.50
2023-03-11T09:06:38.151Z,13.40
2023-03-11T09:09:07.022Z,13.80
2023-03-11T09:11:37.605Z,13.80
2023-03-11T09:14:06.809Z,13.70
2023-03-11T09:16:35.933Z,13.70
2023-03-11T09:19:07.494Z,13.70
2023-03-11T09:21:39.014Z,14.10
2023-03-11T09:24:08.701Z,14.30
2023-03-11T09:26:37.908Z,13.90
2023-03-11T09:29:09.649Z,13.40
2023-03-11T09:31:39.944Z,13.30
2023-03-11T09:34:08.907Z,12.90
2023-03-11T09:36:45.228Z,13.10
2023-03-11T09:39:14.204Z,13.20
2023-03-11T09:41:58.500Z,13.10
2023-03-11T09:44:38.370Z,12.90
2023-03-11T09:47:41.841Z,13.30
2023-03-11T09:50:33.091Z,13.50
2023-03-11T09:53:19.721Z,13.00
2023-03-11T09:55:52.052Z,13.30
2023-03-11T09:58:36.103Z,13.00
2023-03-11T10:01:15.031Z,13.30
2023-03-11T10:03:45.954Z,13.80
2023-03-11T10:06:19.427Z,13.60
2023-03-11T10:09:00.525Z,12.90
2023-03-11T10:11:57.568Z,13.20
2023-03-11T10:14:55.599Z,13.50
2023-03-11T10:17:53.980Z,13.60
2023-03-11T10:20:29.478Z,13.60
2023-03-11T10:23:17.030Z,12.90
2023-03-11T10:26:04.319Z,12.20
2023-03-11T10:28:39.606Z,12.30
2023-03-11T10:31:23.122Z,11.50
2023-03-11T10:34:00.439Z,11.90
2023-03-11T10:36:39.557Z,11.80
2023-03-11T10:39:12.112Z,12.50
2023-03-11T10:41:51.303Z,12.60
2023-03-11T10:44:38.565Z,12.90
2023-03-11T10:47:19.561Z,12.70
2023-03-11T10:50:09.196Z,12.10
2023-03-11T10:53:05.202Z,11.80
2023-03-11T10:55:34.400Z,10.90
2023-03-11T10:58:14.226Z,10.70
2023-03-11T11:00:43.557Z,10.60
2023-03-11T11:03:34.242Z,10.80
2023-03-11T11:06:07.057Z,11.00
2023-03-11T11:08:36.429Z,11.00
2023-03-11T11:11:22.324Z,10.80
2023-03-11T11:14:00.941Z,11.10
2023-03-11T11:16:34.355Z,11.10
2023-03-11T11:19:13.176Z,11.00
2023-03-11T11:21:45.021Z,11.00
2023-03-11T11:24:23.775Z,11.00
2023-03-11T11:27:07.419Z,11.30
2023-03-11T11:29:37.795Z,11.70
2023-03-11T11:32:25.555Z,11.50
2023-03-11T11:35:02.427Z,11.20
2023-03-11T11:37:35.194Z,10.60
2023-03-11T11:40:16.872Z,10.40
2023-03-11T11:42:52.897Z,10.80
2023-03-11T11:45:34.065Z,10.90
2023-03-11T11:48:13.404Z,10.60
2023-03-11T11:50:49.712Z,10.60
2023-03-11T11:53:32.912Z,10.40
2023-03-11T11:56:03.160Z,10.50
2023-03-11T11:58:33.021Z,10.30
2023-03-11T12:01:17.427Z,10.20
2023-03-11T12:04:23.892Z,10.50
2023-03-11T12:07:09.378Z,10.60
2023-03-11T12:09:52.566Z,10.60
2023-03-11T12:12:32.664Z,10.70
2023-03-11T12:15:13.216Z,10.30
2023-03-11T12:17:48.887Z,10.30
2023-03-11T12:20:29.030Z,10.40
2023-03-11T12:23:30.946Z,10.40
2023-03-11T12:26:21.422Z,10.40
2023-03-11T12:28:58.054Z,10.30
2023-03-11T12:31:32.019Z,10.30
2023-03-11T12:34:05.617Z,10.30
2023-03-11T12:36:37.762Z,10.30
2023-03-11T12:39:09.713Z,10.20
2023-03-11T12:41:42.259Z,10.00
2023-03-11T12:44:27.285Z,10.00
2023-03-11T12:47:19.090Z,9.80
2023-03-11T12:49:51.876Z,9.30
2023-03-11T12:52:54.489Z,9.00
2023-03-11T12:55:37.085Z,9.10
2023-03-11T12:58:50.103Z,8.70
2023-03-11T13:01:55.142Z,8.80
2023-03-11T13:04:45.808Z,8.90
2023-03-11T13:07:49.610Z,9.10
2023-03-11T13:10:39.167Z,8.90
2023-03-11T13:13:40.761Z,9.00
2023-03-11T13:16:39.804Z,8.90
2023-03-11T13:19:58.096Z,8.80
2023-03-11T13:23:10.463Z,8.60
2023-03-11T13:25:42.842Z,8.60
2023-03-11T13:28:44.218Z,8.80
2023-03-11T13:31:38.802Z,8.80
2023-03-11T13:34:17.598Z,8.60
2023-03-11T13:37:00.357Z,8.50
2023-03-11T13:39:50.956Z,8.50
2023-03-11T13:42:30.860Z,8.40
2023-03-11T13:45:00.980Z,8.50
2023-03-11T13:47:32.675Z,8.50
2023-03-11T13:50:08.198Z,8.60
2023-03-11T13:52:43.389Z,8.70
2023-03-11T13:55:22.993Z,8.50
2023-03-11T13:57:54.274Z,8.30
2023-03-11T14:00:28.090Z,8.30
2023-03-11T14:02:59.302Z,8.30
2023-03-11T14:05:32.462Z,8.50
2023-03-11T14:08:14.863Z,8.40
2023-03-11T14:10:55.354Z,8.10
2023-03-11T14:13:26.792Z,7.90
2023-03-11T14:16:04.787Z,8.10
2023-03-11T14:18:38.048Z,8.20
2023-03-11T14:21:13.816Z,8.30
2023-03-11T14:23:46.299Z,8.30
2023-03-11T14:26:20.531Z,8.30
2023-03-11T14:28:53.632Z,8.00
2023-03-11T14:31:32.597Z,7.90
2023-03-11T14:34:06.913Z,8.10
2023-03-11T14:36:43.689Z,8.20
2023-03-11T14:39:26.807Z,8.20
2023-03-11T14:42:04.621Z,8.30
2023-03-11T14:44:36.812Z,8.20
2023-03-11T14:47:15.674Z,8.10
2023-03-11T14:49:45.860Z,8.00
2023-03-11T14:52:22.983Z,8.10
2023-03-11T14:54:55.688Z,8.00
2023-03-11T14:57:38.868Z,7.90
2023-03-11T15:00:17.095Z,7.80
2023-03-11T15:03:01.163Z,7.80
2023-03-11T15:05:43.274Z,7.90
2023-03-11T15:08:12.443Z,8.00
2023-03-11T15:10:41.417Z,8.00
2023-03-11T15:14:23.422Z,9.20
2023-03-11T15:16:53.863Z,8.10
2023-03-11T15:19:25.494Z,8.10
2023-03-11T15:21:56.589Z,8.20
2023-03-11T15:24:28.430Z,8.00
2023-03-11T15:27:01.122Z,8.00
2023-03-11T15:29:33.397Z,7.90
2023-03-11T15:32:26.313Z,7.80
2023-03-11T15:35:04.562Z,7.80
2023-03-11T15:37:33.563Z,7.80
2023-03-11T15:40:22.469Z,7.80
2023-03-11T15:43:17.014Z,7.80
2023-03-11T15:45:49.287Z,7.80
2023-03-11T15:48:18.567Z,7.80
2023-03-11T15:50:54.667Z,7.70
2023-03-11T15:53:25.355Z,7.60
2023-03-11T15:55:55.996Z,7.50
2023-03-11T15:58:25.200Z,7.40
2023-03-11T16:00:58.575Z,7.30
2023-03-11T16:03:28.076Z,7.30
2023-03-11T16:05:58.357Z,7.30
2023-03-11T16:08:27.191Z,7.30
2023-03-11T16:10:55.879Z,7.40
2023-03-11T16:13:24.671Z,7.30
2023-03-11T16:15:55.114Z,7.30
2023-03-11T16:18:24.158Z,7.20
2023-03-11T16:20:56.329Z,7.10
2023-03-11T16:23:29.566Z,7.20
2023-03-11T16:26:02.888Z,7.20
2023-03-11T16:28:32.021Z,7.20
2023-03-11T16:31:02.460Z,7.20
2023-03-11T16:33:31.276Z,7.20
2023-03-11T16:36:00.411Z,7.20
2023-03-11T16:38:31.305Z,7.10
2023-03-11T16:41:02.596Z,6.70
2023-03-11T16:43:33.368Z,6.90
2023-03-11T16:46:03.665Z,6.90
2023-03-11T16:48:32.535Z,6.90
2023-03-11T16:51:01.629Z,6.90
2023-03-11T16:53:30.533Z,6.80
2023-03-11T16:55:59.886Z,6.90
2023-03-11T16:58:28.997Z,6.90
2023-03-11T17:00:57.984Z,6.90
2023-03-11T17:03:34.448Z,6.80
2023-03-11T17:06:10.602Z,6.80
2023-03-11T17:08:39.452Z,6.70
2023-03-11T17:11:16.018Z,6.60
2023-03-11T17:13:45.280Z,6.60
2023-03-11T17:16:14.941Z,6.90
2023-03-11T17:18:45.389Z,6.90
2023-03-11T17:21:16.995Z,7.00
2023-03-11T17:23:46.162Z,6.90
2023-03-11T17:26:18.042Z,6.90
2023-03-11T17:28:46.862Z,6.90
2023-03-11T17:31:17.919Z,6.70
2023-03-11T17:33:48.662Z,6.80
2023-03-11T17:36:19.815Z,6.70
2023-03-11T17:38:52.385Z,6.40
2023-03-11T17:41:22.039Z,6.30
2023-03-11T17:43:51.705Z,6.20
2023-03-11T17:46:22.782Z,6.20
2023-03-11T17:48:53.762Z,6.10
2023-03-11T17:51:25.837Z,6.20
2023-03-11T17:53:57.139Z,6.20
2023-03-11T17:56:26.265Z,6.30
2023-03-11T17:58:55.642Z,6.20
2023-03-11T18:01:28.026Z,6.30
2023-03-11T18:03:58.805Z,6.30
2023-03-11T18:06:28.165Z,6.30
2023-03-11T18:08:57.359Z,6.20
2023-03-11T18:11:29.861Z,6.20
2023-03-11T18:13:59.075Z,6.00
2023-03-11T18:16:32.013Z,5.90
2023-03-11T18:19:02.796Z,5.90
2023-03-11T18:21:33.373Z,6.00
2023-03-11T18:24:02.776Z,6.00
2023-03-11T18:26:32.685Z,6.00
2023-03-11T18:29:06.047Z,6.00
2023-03-11T18:31:35.149Z,6.10
2023-03-11T18:34:12.365Z,5.90
2023-03-11T18:36:43.460Z,5.80
2023-03-11T18:39:13.900Z,5.90
2023-03-11T18:41:43.973Z,5.80
2023-03-11T18:44:12.884Z,5.80
2023-03-11T18:46:44.761Z,5.70
2023-03-11T18:49:15.641Z,5.80
2023-03-11T18:51:44.682Z,5.80
2023-03-11T18:54:13.639Z,5.90
2023-03-11T18:56:42.502Z,5.90
2023-03-11T18:59:12.256Z,5.90
2023-03-11T19:01:41.410Z,5.90
2023-03-11T19:04:11.741Z,5.90
2023-03-11T19:06:42.121Z,6.00
2023-03-11T19:09:11.100Z,5.80
2023-03-11T19:11:43.101Z,5.70
2023-03-11T19:14:12.456Z,5.70
2023-03-11T19:16:41.532Z,5.60
2023-03-11T19:19:11.940Z,5.40
2023-03-11T19:21:42.581Z,5.50
2023-03-11T19:24:15.725Z,5.60
2023-03-11T19:26:46.253Z,5.60
2023-03-11T19:29:16.100Z,5.40
2023-03-11T19:31:45.577Z,5.40
2023-03-11T19:34:14.611Z,5.50
2023-03-11T19:36:46.840Z,5.50
2023-03-11T19:39:15.882Z,5.10
2023-03-11T19:41:44.764Z,5.30
2023-03-11T19:44:13.771Z,5.40
2023-03-11T19:46:42.856Z,5.40
2023-03-11T19:49:11.926Z,5.40
2023-03-11T19:51:49.480Z,5.40
2023-03-11T19:54:20.809Z,5.40
2023-03-11T19:56:50.063Z,5.40
2023-03-11T19:59:18.966Z,5.50
2023-03-11T20:01:48.190Z,5.30
2023-03-11T20:04:17.154Z,5.20
2023-03-11T20:06:46.539Z,5.20
2023-03-11T20:09:16.329Z,5.20
2023-03-11T20:11:46.947Z,5.20
2023-03-11T20:14:16.198Z,5.20
2023-03-11T20:16:45.552Z,5.20
2023-03-11T20:19:14.670Z,5.10
2023-03-11T20:21:45.815Z,5.10
2023-03-11T20:24:15.209Z,5.10
2023-03-11T20:26:45.750Z,5.10
2023-03-11T20:29:14.864Z,5.10
2023-03-11T20:31:44.810Z,5.20
2023-03-11T20:34:14.851Z,5.00
2023-03-11T20:36:44.043Z,5.10
2023-03-11T20:39:13.346Z,5.10
2023-03-11T20:41:43.174Z,5.00
2023-03-11T20:44:15.600Z,5.00
2023-03-11T20:46:45.080Z,4.90
2023-03-11T20:49:14.074Z,4.90
2023-03-11T20:51:44.037Z,4.80
2023-03-11T20:54:13.113Z,4.80
2023-03-11T20:56:43.106Z,4.80
2023-03-11T20:59:15.302Z,4.80
2023-03-11T21:01:45.978Z,4.70
2023-03-11T21:04:16.706Z,4.70
2023-03-11T21:06:49.844Z,4.60
2023-03-11T21:09:19.004Z,4.70
2023-03-11T21:11:47.998Z,4.70
2023-03-11T21:14:20.170Z,4.60
2023-03-11T21:16:49.473Z,4.60
2023-03-11T21:19:18.458Z,4.60
2023-03-11T21:21:47.594Z,4.50
2023-03-11T21:24:17.347Z,4.50
2023-03-11T21:26:46.435Z,4.40
2023-03-11T21:29:15.548Z,4.40
2023-03-11T21:31:46.102Z,4.30
2023-03-11T21:34:15.247Z,4.30
2023-03-11T21:36:44.269Z,4.30
2023-03-11T21:39:14.710Z,4.30
2023-03-11T21:41:43.970Z,4.10
2023-03-11T21:44:13.250Z,4.10
2023-03-11T21:46:43.066Z,4.00
2023-03-11T21:49:13.958Z,4.10
2023-03-11T21:51:43.561Z,4.00
2023-03-11T21:54:13.423Z,3.90
2023-03-11T21:56:43.172Z,3.90
2023-03-11T21:59:12.222Z,3.70
2023-03-11T22:01:41.631Z,3.80
2023-03-11T22:04:12.773Z,3.90
2023-03-11T22:06:42.323Z,3.90
2023-03-11T22:09:11.393Z,3.90
2023-03-11T22:11:40.521Z,3.90
2023-03-11T22:14:10.092Z,3.90
2023-03-11T22:16:39.588Z,3.80
2023-03-11T22:19:11.503Z,3.80
2023-03-11T22:21:42.119Z,3.70
2023-03-11T22:26:42.411Z,3.70
2023-03-11T22:29:13.554Z,3.80
2023-03-11T22:31:43.415Z,3.60
2023-03-11T22:34:13.047Z,3.70
2023-03-11T22:36:43.856Z,3.60
2023-03-11T22:39:13.099Z,3.60
2023-03-11T22:41:42.649Z,3.50
2023-03-11T22:44:12.337Z,3.30
2023-03-11T22:46:41.654Z,3.60
2023-03-11T22:49:10.788Z,3.40
2023-03-11T22:51:39.864Z,3.50
2023-03-11T22:54:10.558Z,3.50
2023-03-11T22:56:39.679Z,3.70
2023-03-11T22:59:08.862Z,3.60
2023-03-11T23:01:37.766Z,3.60
2023-03-11T23:04:06.930Z,3.50
2023-03-11T23:06:36.051Z,3.70
2023-03-11T23:16:36.896Z,3.60
2023-03-11T23:19:06.009Z,3.60
2023-03-11T23:21:35.858Z,3.50
2023-03-11T23:26:40.388Z,3.20
2023-03-11T23:29:09.407Z,3.40
2023-03-11T23:36:38.697Z,3.50
2023-03-11T23:39:07.891Z,3.50
2023-03-11T23:41:38.256Z,3.40
2023-03-11T23:44:07.345Z,3.50
2023-03-11T23:51:38.207Z,3.30
2023-03-11T23:56:39.994Z,3.20
2023-03-11T23:59:09.410Z,3.30
